createdAt,value
2022-09-27T00:01:10.591Z,69.17
2022-09-27T00:04:53.388Z,69.36
2022-09-27T00:08:37.319Z,69.56
2022-09-27T00:12:20.154Z,69.79
2022-09-27T00:16:06.141Z,70.25
2022-09-27T00:19:48.971Z,70.68
2022-09-27T00:23:31.815Z,70.83
2022-09-27T00:27:14.596Z,71.12
2022-09-27T00:30:57.511Z,71.14
2022-09-27T00:34:42.414Z,71.88
2022-09-27T00:38:25.197Z,72.04
2022-09-27T00:42:11.381Z,73.09
2022-09-27T00:45:57.105Z,73.60
2022-09-27T00:49:43.527Z,73.38
2022-09-27T00:53:31.335Z,74.12
2022-09-27T00:57:14.217Z,74.78
2022-09-27T01:00:59.912Z,75.21
2022-09-27T01:04:45.207Z,75.35
2022-09-27T01:08:27.976Z,73.83
2022-09-27T01:12:18.217Z,74.01
2022-09-27T01:16:05.880Z,73.81
2022-09-27T01:20:12.968Z,73.69
2022-09-27T01:24:11.922Z,73.43
2022-09-27T01:28:10.949Z,74.06
2022-09-27T01:32:00.881Z,75.91
2022-09-27T01:35:54.528Z,77.08
2022-09-27T01:39:45.085Z,78.08
2022-09-27T01:43:31.378Z,79.30
2022-09-27T01:47:18.396Z,79.65
2022-09-27T01:51:05.324Z,80.35
2022-09-27T01:54:53.032Z,80.88
2022-09-27T01:58:40.621Z,81.61
2022-09-27T02:02:28.293Z,82.13
2022-09-27T02:06:14.831Z,81.22
2022-09-27T02:10:00.638Z,82.54
2022-09-27T02:13:48.265Z,82.83
2022-09-27T02:17:37.634Z,82.57
2022-09-27T02:21:21.780Z,83.66
2022-09-27T02:25:14.252Z,85.05
2022-09-27T02:28:59.579Z,85.46
2022-09-27T02:32:46.629Z,85.06
2022-09-27T02:36:30.167Z,85.65
2022-09-27T02:40:13.924Z,86.78
2022-09-27T02:43:59.437Z,88.25
2022-09-27T02:48:07.932Z,88.09
2022-09-27T02:52:01.738Z,87.99
2022-09-27T02:55:52.368Z,89.43
2022-09-27T02:59:38.648Z,90.13
2022-09-27T03:03:27.167Z,89.94
2022-09-27T03:07:10.344Z,89.96
2022-09-27T03:10:53.687Z,90.97
2022-09-27T03:14:39.029Z,91.75
2022-09-27T03:18:23.241Z,90.88
2022-09-27T03:22:07.904Z,90.84
2022-09-27T03:25:50.978Z,91.20
2022-09-27T03:29:36.636Z,92.31
2022-09-27T03:33:19.425Z,91.52
2022-09-27T03:37:03.780Z,91.92
2022-09-27T03:40:46.665Z,91.21
2022-09-27T03:44:32.428Z,91.63
2022-09-27T03:48:15.410Z,91.38
2022-09-27T03:51:58.242Z,92.29
2022-09-27T03:55:42.407Z,93.31
2022-09-27T03:59:25.190Z,93.96
2022-09-27T04:03:08.118Z,92.73
2022-09-27T04:06:50.944Z,93.36
2022-09-27T04:10:33.757Z,93.14
2022-09-27T04:14:17.979Z,93.44
2022-09-27T04:18:00.745Z,93.81
2022-09-27T04:21:43.564Z,93.27
2022-09-27T04:25:26.486Z,89.17
2022-09-27T04:29:10.213Z,86.83
2022-09-27T04:32:54.410Z,86.88
2022-09-27T04:36:37.755Z,87.39
2022-09-27T04:40:22.198Z,87.70
2022-09-27T04:44:06.534Z,87.76
2022-09-27T04:47:51.562Z,87.33
2022-09-27T04:51:35.689Z,89.08
2022-09-27T04:55:20.471Z,88.57
2022-09-27T04:59:08.319Z,88.81
2022-09-27T05:02:53.712Z,89.27
2022-09-27T05:06:38.327Z,88.76
2022-09-27T05:10:21.144Z,87.75
2022-09-27T05:14:03.931Z,87.14
2022-09-27T05:17:46.710Z,84.71
2022-09-27T05:21:31.576Z,86.39
2022-09-27T05:25:15.807Z,85.66
2022-09-27T05:28:58.648Z,86.65
2022-09-27T05:32:44.694Z,86.24
2022-09-27T05:36:27.537Z,85.48
2022-09-27T05:40:29.405Z,84.04
2022-09-27T05:44:15.186Z,82.75
2022-09-27T05:47:59.145Z,82.03
2022-09-27T05:51:42.090Z,82.60
2022-09-27T05:55:25.230Z,83.87
2022-09-27T05:59:08.278Z,81.82
2022-09-27T06:02:57.305Z,82.55
2022-09-27T06:06:40.329Z,83.03
2022-09-27T06:10:23.115Z,81.71
2022-09-27T06:14:06.190Z,82.65
2022-09-27T06:17:48.984Z,82.52
2022-09-27T06:21:36.417Z,83.97
2022-09-27T06:25:20.436Z,83.35
2022-09-27T06:29:03.322Z,84.22
2022-09-27T06:32:46.166Z,83.73
2022-09-27T06:36:30.856Z,82.86
2022-09-27T06:40:17.407Z,83.24
2022-09-27T06:44:00.228Z,81.71
2022-09-27T06:47:43.269Z,81.48
2022-09-27T06:51:26.486Z,81.09
2022-09-27T06:55:12.037Z,80.73
2022-09-27T06:59:13.482Z,80.44
2022-09-27T07:03:00.923Z,79.12
2022-09-27T07:06:43.735Z,78.45
2022-09-27T07:10:28.418Z,76.26
2022-09-27T07:14:12.648Z,75.58
2022-09-27T07:17:58.200Z,76.04
2022-09-27T07:21:41.025Z,76.04
2022-09-27T07:25:24.729Z,76.00
2022-09-27T07:29:07.555Z,74.81
2022-09-27T07:32:52.340Z,75.29
2022-09-27T07:36:35.343Z,75.77
2022-09-27T07:40:18.554Z,75.51
2022-09-27T07:44:09.825Z,76.43
2022-09-27T07:47:54.148Z,76.21
2022-09-27T07:51:36.971Z,75.29
2022-09-27T07:55:20.713Z,73.97
2022-09-27T07:59:03.633Z,72.19
2022-09-27T08:02:46.891Z,71.72
2022-09-27T08:06:31.227Z,71.00
2022-09-27T08:10:14.022Z,69.99
2022-09-27T08:13:57.162Z,73.13
2022-09-27T08:17:39.982Z,77.77
2022-09-27T08:21:22.747Z,77.28
2022-09-27T08:25:07.540Z,79.44
2022-09-27T08:28:50.405Z,80.56
2022-09-27T08:32:33.896Z,82.13
2022-09-27T08:36:16.819Z,83.16
2022-09-27T08:39:59.953Z,85.36
2022-09-27T08:43:48.679Z,84.73
2022-09-27T08:47:36.116Z,85.20
2022-09-27T08:51:19.565Z,86.15
2022-09-27T08:55:05.176Z,85.48
2022-09-27T08:58:53.051Z,83.10
2022-09-27T09:02:36.602Z,82.51
2022-09-27T09:06:23.780Z,79.35
2022-09-27T09:10:41.167Z,80.10
2022-09-27T09:14:39.389Z,80.29
2022-09-27T09:18:33.218Z,80.17
2022-09-27T09:22:28.954Z,80.12
2022-09-27T09:26:16.093Z,79.21
2022-09-27T09:30:19.610Z,77.34
2022-09-27T09:34:06.750Z,77.63
2022-09-27T09:37:51.209Z,76.79
2022-09-27T09:41:37.465Z,74.13
2022-09-27T09:45:24.128Z,74.65
2022-09-27T09:49:14.381Z,73.80
2022-09-27T09:53:00.286Z,74.91
2022-09-27T09:56:45.865Z,74.22
2022-09-27T10:00:30.137Z,72.96
2022-09-27T10:04:17.273Z,71.97
2022-09-27T10:08:02.398Z,73.51
2022-09-27T10:11:47.280Z,73.30
2022-09-27T10:15:32.295Z,74.29
2022-09-27T10:19:18.269Z,73.50
2022-09-27T10:23:06.193Z,73.18
2022-09-27T10:26:51.477Z,74.05
2022-09-27T10:30:38.524Z,75.48
2022-09-27T10:34:30.957Z,73.03
2022-09-27T10:38:22.646Z,75.13
2022-09-27T10:42:24.122Z,77.14
2022-09-27T10:46:14.569Z,78.85
2022-09-27T10:50:06.703Z,81.90
2022-09-27T10:53:49.791Z,82.75
2022-09-27T10:57:43.006Z,83.99
2022-09-27T11:01:40.763Z,86.38
2022-09-27T11:05:36.368Z,91.43
2022-09-27T11:09:24.349Z,89.17
2022-09-27T11:13:08.969Z,79.30
2022-09-27T11:17:09.622Z,75.11
2022-09-27T11:20:55.023Z,72.42
2022-09-27T11:24:50.738Z,72.75
2022-09-27T11:28:43.001Z,69.75
2022-09-27T11:32:37.990Z,72.40
2022-09-27T11:36:28.435Z,71.62
2022-09-27T11:40:26.183Z,72.16
2022-09-27T11:44:30.614Z,71.42
2022-09-27T11:48:26.663Z,71.99
2022-09-27T11:52:37.011Z,71.90
2022-09-27T11:56:28.090Z,70.62
2022-09-27T12:00:16.893Z,70.20
2022-09-27T12:04:24.741Z,70.75
2022-09-27T12:08:23.485Z,78.00
2022-09-27T12:12:10.961Z,68.13
2022-09-27T12:15:54.067Z,69.26
2022-09-27T12:19:40.845Z,69.96
2022-09-27T12:23:26.730Z,68.02
2022-09-27T12:27:11.360Z,69.53
2022-09-27T12:31:17.277Z,68.51
2022-09-27T12:35:05.493Z,66.25
2022-09-27T12:38:53.716Z,64.90
2022-09-27T12:42:39.654Z,64.49
2022-09-27T12:46:31.415Z,61.70
2022-09-27T12:50:23.848Z,59.79
2022-09-27T12:54:37.212Z,60.80
2022-09-27T12:58:47.661Z,61.06
2022-09-27T13:03:16.167Z,60.81
2022-09-27T13:07:12.067Z,59.87
2022-09-27T13:11:00.431Z,54.83
2022-09-27T13:14:55.647Z,55.28
2022-09-27T13:18:53.957Z,54.70
2022-09-27T13:22:41.744Z,54.36
2022-09-27T13:26:43.737Z,54.39
2022-09-27T13:30:48.115Z,54.84
2022-09-27T13:34:41.999Z,55.53
2022-09-27T13:38:26.152Z,54.84
2022-09-27T13:42:29.560Z,55.69
2022-09-27T13:46:17.042Z,56.21
2022-09-27T13:50:05.993Z,57.54
2022-09-27T13:53:59.556Z,58.36
2022-09-27T13:57:45.232Z,59.07
2022-09-27T14:01:30.565Z,60.57
2022-09-27T14:05:19.378Z,61.79
2022-09-27T14:09:06.875Z,62.39
2022-09-27T14:12:52.011Z,63.08
2022-09-27T14:16:36.941Z,62.68
2022-09-27T14:20:38.353Z,61.94
2022-09-27T14:24:28.978Z,61.40
2022-09-27T14:28:23.803Z,60.18
2022-09-27T14:32:09.303Z,57.43
2022-09-27T14:36:10.797Z,56.59
2022-09-27T14:40:00.289Z,55.81
2022-09-27T14:43:44.919Z,56.19
2022-09-27T14:47:29.382Z,57.41
2022-09-27T14:51:23.731Z,58.82
2022-09-27T14:55:17.309Z,59.25
2022-09-27T14:59:05.654Z,60.33
2022-09-27T15:02:49.393Z,61.26
2022-09-27T15:06:32.297Z,61.74
2022-09-27T15:10:18.895Z,62.30
2022-09-27T15:14:03.316Z,62.67
2022-09-27T15:17:46.492Z,62.65
2022-09-27T15:21:33.345Z,63.48
2022-09-27T15:25:34.715Z,63.52
2022-09-27T15:29:21.095Z,63.43
2022-09-27T15:33:04.403Z,62.52
2022-09-27T15:36:56.085Z,60.96
2022-09-27T15:41:08.392Z,58.76
2022-09-27T15:44:52.745Z,58.03
2022-09-27T15:48:37.628Z,58.62
2022-09-27T15:52:41.496Z,59.99
2022-09-27T15:56:25.668Z,60.52
2022-09-27T16:00:12.088Z,61.32
2022-09-27T16:03:54.779Z,61.98
2022-09-27T16:07:37.521Z,64.38
2022-09-27T16:11:20.188Z,66.52
2022-09-27T16:15:05.042Z,66.72
2022-09-27T16:18:48.113Z,66.92
2022-09-27T16:22:30.851Z,66.46
2022-09-27T16:26:13.822Z,66.69
2022-09-27T16:29:57.784Z,66.45
2022-09-27T16:33:41.867Z,66.30
2022-09-27T16:37:24.681Z,66.51
2022-09-27T16:41:07.366Z,67.63
2022-09-27T16:44:53.477Z,68.12
2022-09-27T16:48:36.210Z,67.21
2022-09-27T16:52:19.304Z,67.44
2022-09-27T16:56:02.213Z,68.06
2022-09-27T16:59:44.949Z,68.47
2022-09-27T17:03:28.597Z,70.06
2022-09-27T17:07:11.281Z,71.84
2022-09-27T17:10:56.942Z,72.39
2022-09-27T17:14:39.663Z,71.86
2022-09-27T17:18:22.442Z,73.91
2022-09-27T17:22:05.116Z,75.78
2022-09-27T17:25:47.950Z,76.94
2022-09-27T17:29:32.015Z,78.48
2022-09-27T17:33:14.772Z,79.85
2022-09-27T17:37:00.772Z,81.69
2022-09-27T17:40:43.508Z,82.13
2022-09-27T17:44:29.397Z,82.31
2022-09-27T17:48:30.183Z,82.93
2022-09-27T17:52:12.922Z,84.18
2022-09-27T17:56:01.711Z,83.18
2022-09-27T17:59:44.834Z,83.85
2022-09-27T18:03:29.156Z,82.29
2022-09-27T18:07:13.034Z,87.35
2022-09-27T18:10:55.854Z,79.24
2022-09-27T18:14:39.657Z,80.11
2022-09-27T18:18:22.368Z,78.51
2022-09-27T18:22:07.217Z,79.97
2022-09-27T18:25:55.056Z,79.73
2022-09-27T18:29:37.755Z,80.43
2022-09-27T18:33:20.565Z,79.87
2022-09-27T18:37:03.302Z,80.43
2022-09-27T18:40:56.166Z,79.39
2022-09-27T18:44:39.643Z,79.62
2022-09-27T18:48:22.495Z,78.54
2022-09-27T18:52:05.227Z,79.07
2022-09-27T18:55:49.314Z,78.79
2022-09-27T18:59:32.176Z,78.87
2022-09-27T19:03:16.735Z,78.85
2022-09-27T19:06:59.452Z,79.91
2022-09-27T19:10:42.239Z,79.73
2022-09-27T19:14:26.944Z,79.93
2022-09-27T19:18:10.023Z,80.13
2022-09-27T19:21:52.753Z,80.16
2022-09-27T19:25:39.890Z,80.69
2022-09-27T19:29:26.747Z,81.32
2022-09-27T19:33:09.630Z,81.09
2022-09-27T19:36:52.442Z,79.73
2022-09-27T19:40:35.264Z,80.33
2022-09-27T19:44:18.043Z,81.05
2022-09-27T19:48:02.783Z,81.11
2022-09-27T19:51:45.524Z,80.32
2022-09-27T19:55:28.209Z,80.06
2022-09-27T19:59:11.828Z,79.68
2022-09-27T20:02:54.573Z,80.22
2022-09-27T20:06:38.799Z,80.04
2022-09-27T20:10:21.513Z,81.06
2022-09-27T20:14:04.220Z,80.83
2022-09-27T20:17:47.113Z,80.19
2022-09-27T20:21:32.574Z,80.32
2022-09-27T20:25:16.953Z,79.15
2022-09-27T20:29:00.827Z,79.36
2022-09-27T20:33:03.497Z,79.40
2022-09-27T20:36:50.026Z,80.19
2022-09-27T20:40:34.100Z,81.13
2022-09-27T20:44:17.984Z,80.07
2022-09-27T20:48:00.666Z,80.02
2022-09-27T20:51:44.454Z,80.32
2022-09-27T20:55:27.114Z,80.34
2022-09-27T20:59:16.525Z,79.98
2022-09-27T21:02:59.358Z,80.81
2022-09-27T21:06:42.340Z,80.90
2022-09-27T21:10:25.024Z,82.57
2022-09-27T21:14:07.672Z,83.38
2022-09-27T21:17:52.784Z,83.89
2022-09-27T21:21:35.463Z,85.03
2022-09-27T21:25:18.182Z,85.14
2022-09-27T21:29:02.483Z,85.11
2022-09-27T21:32:45.188Z,84.61
2022-09-27T21:36:33.390Z,85.19
2022-09-27T21:40:16.261Z,85.55
2022-09-27T21:43:58.977Z,86.05
2022-09-27T21:47:41.647Z,87.44
2022-09-27T21:51:26.091Z,84.25
2022-09-27T21:55:10.610Z,84.56
2022-09-27T21:58:53.290Z,84.92
2022-09-27T22:02:35.955Z,84.47
2022-09-27T22:06:21.031Z,85.91
2022-09-27T22:10:03.738Z,85.42
2022-09-27T22:13:48.681Z,87.42
2022-09-27T22:17:31.344Z,88.52
2022-09-27T22:21:15.629Z,88.78
2022-09-27T22:24:58.290Z,90.29
2022-09-27T22:28:41.276Z,92.18
2022-09-27T22:32:25.324Z,93.38
2022-09-27T22:36:08.224Z,92.97
2022-09-27T22:39:50.901Z,93.66
2022-09-27T22:43:33.836Z,92.96
2022-09-27T22:47:17.083Z,92.46
2022-09-27T22:51:01.393Z,93.28
2022-09-27T22:54:44.069Z,93.53
2022-09-27T22:58:26.994Z,93.44
2022-09-27T23:02:09.841Z,92.80
2022-09-27T23:05:52.569Z,91.87
2022-09-27T23:09:36.609Z,92.04
2022-09-27T23:13:19.732Z,90.27
2022-09-27T23:17:02.705Z,91.37
2022-09-27T23:20:45.801Z,91.77
2022-09-27T23:24:28.514Z,92.37
2022-09-27T23:28:12.538Z,91.96
2022-09-27T23:31:55.793Z,92.37
2022-09-27T23:35:38.417Z,93.70
2022-09-27T23:39:21.272Z,94.69
2022-09-27T23:43:04.500Z,94.26
2022-09-27T23:46:49.653Z,95.08
2022-09-27T23:50:33.092Z,95.14
2022-09-27T23:54:15.809Z,95.37
2022-09-27T23:57:58.521Z,95.41
